sensor_id;sensor_type;location;lat;lon;timestamp;P1;durP1;ratioP1;P2;durP2;ratioP2
69588;SDS011;56792;50.644;17.984;2023-10-19T06:59:37;24.00;;;13.40;;
69588;SDS011;56792;50.644;17.984;2023-10-19T07:02:08;19.90;;;12.50;;
69588;SDS011;56792;50.644;17.984;2023-10-19T07:04:41;24.10;;;12.70;;
69588;SDS011;56792;50.644;17.984;2023-10-19T07:07:12;26.90;;;14.00;;
69588;SDS011;56792;50.644;17.984;2023-10-19T07:09:43;24.50;;;13.40;;
69588;SDS011;56792;50.644;17.984;2023-10-19T07:12:14;22.20;;;13.60;;
69588;SDS011;56792;50.644;17.984;2023-10-19T07:14:47;21.60;;;12.80;;
69588;SDS011;56792;50.644;17.984;2023-10-19T07:17:18;20.70;;;12.40;;
69588;SDS011;56792;50.644;17.984;2023-10-19T07:19:49;18.80;;;11.20;;
69588;SDS011;56792;50.644;17.984;2023-10-19T07:22:20;22.00;;;12.00;;
69588;SDS011;56792;50.644;17.984;2023-10-19T07:24:53;21.70;;;12.40;;
69588;SDS011;56792;50.644;17.984;2023-10-19T07:27:24;22.60;;;12.50;;
69588;SDS011;56792;50.644;17.984;2023-10-19T07:29:56;21.70;;;12.70;;
69588;SDS011;56792;50.644;17.984;2023-10-19T07:32:27;19.90;;;11.70;;
69588;SDS011;56792;50.644;17.984;2023-10-19T07:34:59;18.70;;;12.00;;
69588;SDS011;56792;50.644;17.984;2023-10-19T07:37:30;20.20;;;11.70;;
69588;SDS011;56792;50.644;17.984;2023-10-19T07:40:01;17.10;;;11.00;;
69588;SDS011;56792;50.644;17.984;2023-10-19T07:42:33;17.70;;;10.80;;
69588;SDS011;56792;50.644;17.984;2023-10-19T07:45:05;20.40;;;11.80;;
69588;SDS011;56792;50.644;17.984;2023-10-19T07:47:40;19.40;;;11.30;;
69588;SDS011;56792;50.644;17.984;2023-10-19T07:50:14;19.60;;;11.80;;
69588;SDS011;56792;50.644;17.984;2023-10-19T07:52:46;20.20;;;11.50;;
69588;SDS011;56792;50.644;17.984;2023-10-19T07:55:20;21.20;;;12.50;;
69588;SDS011;56792;50.644;17.984;2023-10-19T07:57:52;20.90;;;11.30;;
69588;SDS011;56792;50.644;17.984;2023-10-19T08:00:23;20.10;;;11.40;;
69588;SDS011;56792;50.644;17.984;2023-10-19T08:02:54;20.50;;;13.50;;
69588;SDS011;56792;50.644;17.984;2023-10-19T08:05:26;20.70;;;11.80;;
69588;SDS011;56792;50.644;17.984;2023-10-19T17:56:35;54.70;;;31.10;;
69588;SDS011;56792;50.644;17.984;2023-10-19T17:59:07;59.30;;;34.80;;
69588;SDS011;56792;50.644;17.984;2023-10-19T18:01:38;70.00;;;39.40;;
69588;SDS011;56792;50.644;17.984;2023-10-19T18:04:09;64.80;;;38.00;;
69588;SDS011;56792;50.644;17.984;2023-10-19T18:06:42;65.70;;;38.80;;
69588;SDS011;56792;50.644;17.984;2023-10-19T18:09:15;64.70;;;38.40;;
69588;SDS011;56792;50.644;17.984;2023-10-19T18:11:46;73.20;;;43.40;;
69588;SDS011;56792;50.644;17.984;2023-10-19T18:14:17;79.60;;;47.00;;
69588;SDS011;56792;50.644;17.984;2023-10-19T18:16:48;86.60;;;49.20;;
69588;SDS011;56792;50.644;17.984;2023-10-19T18:19:19;99.40;;;54.70;;
69588;SDS011;56792;50.644;17.984;2023-10-19T18:21:50;95.50;;;53.90;;
69588;SDS011;56792;50.644;17.984;2023-10-19T18:24:22;97.00;;;55.40;;
69588;SDS011;56792;50.644;17.984;2023-10-19T18:26:59;101.50;;;58.00;;
69588;SDS011;56792;50.644;17.984;2023-10-19T18:29:31;99.40;;;58.20;;
69588;SDS011;56792;50.644;17.984;2023-10-19T18:32:02;91.90;;;55.70;;
69588;SDS011;56792;50.644;17.984;2023-10-19T18:34:33;89.70;;;54.60;;
69588;SDS011;56792;50.644;17.984;2023-10-19T18:37:04;88.50;;;54.40;;
69588;SDS011;56792;50.644;17.984;2023-10-19T18:39:36;81.90;;;50.50;;
69588;SDS011;56792;50.644;17.984;2023-10-19T18:42:07;78.80;;;51.10;;
69588;SDS011;56792;50.644;17.984;2023-10-19T18:44:39;82.70;;;50.00;;
69588;SDS011;56792;50.644;17.984;2023-10-19T18:47:11;85.40;;;54.00;;
69588;SDS011;56792;50.644;17.984;2023-10-19T18:49:42;80.90;;;51.40;;
69588;SDS011;56792;50.644;17.984;2023-10-19T18:52:13;87.90;;;56.50;;
69588;SDS011;56792;50.644;17.984;2023-10-19T18:54:47;95.40;;;58.80;;
69588;SDS011;56792;50.644;17.984;2023-10-19T18:57:18;80.30;;;51.80;;
69588;SDS011;56792;50.644;17.984;2023-10-19T18:59:49;85.50;;;54.50;;
69588;SDS011;56792;50.644;17.984;2023-10-19T19:02:20;78.10;;;47.20;;
69588;SDS011;56792;50.644;17.984;2023-10-19T19:04:51;68.00;;;43.80;;
69588;SDS011;56792;50.644;17.984;2023-10-19T19:07:23;63.50;;;39.50;;
69588;SDS011;56792;50.644;17.984;2023-10-19T19:09:55;61.00;;;38.80;;
69588;SDS011;56792;50.644;17.984;2023-10-19T19:12:26;95.70;;;71.00;;
69588;SDS011;56792;50.644;17.984;2023-10-19T19:14:57;65.20;;;43.80;;
69588;SDS011;56792;50.644;17.984;2023-10-19T19:17:28;51.70;;;36.30;;
69588;SDS011;56792;50.644;17.984;2023-10-19T19:20:01;51.00;;;34.20;;
69588;SDS011;56792;50.644;17.984;2023-10-19T19:22:34;51.30;;;33.20;;
69588;SDS011;56792;50.644;17.984;2023-10-19T19:25:06;51.20;;;31.70;;
69588;SDS011;56792;50.644;17.984;2023-10-19T19:27:38;63.80;;;35.10;;
69588;SDS011;56792;50.644;17.984;2023-10-19T19:30:10;69.20;;;36.10;;
69588;SDS011;56792;50.644;17.984;2023-10-19T19:32:41;86.90;;;43.80;;
69588;SDS011;56792;50.644;17.984;2023-10-19T19:35:13;118.00;;;51.80;;
69588;SDS011;56792;50.644;17.984;2023-10-19T19:37:44;114.50;;;54.60;;
69588;SDS011;56792;50.644;17.984;2023-10-19T19:40:15;135.20;;;68.10;;
69588;SDS011;56792;50.644;17.984;2023-10-19T19:42:51;91.90;;;49.30;;
69588;SDS011;56792;50.644;17.984;2023-10-19T19:45:22;170.20;;;133.20;;
69588;SDS011;56792;50.644;17.984;2023-10-19T19:47:54;60.70;;;36.60;;
69588;SDS011;56792;50.644;17.984;2023-10-19T19:50:26;67.30;;;38.20;;
69588;SDS011;56792;50.644;17.984;2023-10-19T19:52:57;60.10;;;34.70;;
69588;SDS011;56792;50.644;17.984;2023-10-19T19:55:28;61.20;;;35.40;;
69588;SDS011;56792;50.644;17.984;2023-10-19T19:57:59;57.50;;;32.80;;
69588;SDS011;56792;50.644;17.984;2023-10-19T20:00:31;55.60;;;32.20;;
69588;SDS011;56792;50.644;17.984;2023-10-19T20:03:03;55.60;;;33.10;;
69588;SDS011;56792;50.644;17.984;2023-10-19T20:05:37;50.90;;;30.90;;
69588;SDS011;56792;50.644;17.984;2023-10-19T20:08:08;53.20;;;31.50;;
69588;SDS011;56792;50.644;17.984;2023-10-19T20:10:40;53.80;;;30.00;;
69588;SDS011;56792;50.644;17.984;2023-10-19T20:13:13;57.30;;;31.00;;
69588;SDS011;56792;50.644;17.984;2023-10-19T20:15:44;59.90;;;34.40;;
69588;SDS011;56792;50.644;17.984;2023-10-19T20:18:15;60.60;;;36.10;;
69588;SDS011;56792;50.644;17.984;2023-10-19T20:20:47;59.10;;;35.10;;
69588;SDS011;56792;50.644;17.984;2023-10-19T20:23:18;60.50;;;34.50;;
69588;SDS011;56792;50.644;17.984;2023-10-19T20:25:49;57.60;;;34.90;;
69588;SDS011;56792;50.644;17.984;2023-10-19T20:28:20;57.90;;;34.90;;
69588;SDS011;56792;50.644;17.984;2023-10-19T20:30:52;58.70;;;35.20;;
69588;SDS011;56792;50.644;17.984;2023-10-19T20:33:23;61.70;;;37.30;;
69588;SDS011;56792;50.644;17.984;2023-10-19T20:35:54;64.10;;;39.20;;
69588;SDS011;56792;50.644;17.984;2023-10-19T20:38:25;71.60;;;45.80;;
69588;SDS011;56792;50.644;17.984;2023-10-19T20:40:57;69.60;;;45.20;;
69588;SDS011;56792;50.644;17.984;2023-10-19T20:43:28;68.60;;;41.90;;
69588;SDS011;56792;50.644;17.984;2023-10-19T20:46:04;69.90;;;41.70;;
69588;SDS011;56792;50.644;17.984;2023-10-19T20:48:36;65.40;;;39.50;;
69588;SDS011;56792;50.644;17.984;2023-10-19T20:51:16;65.80;;;39.20;;
69588;SDS011;56792;50.644;17.984;2023-10-19T20:53:47;64.40;;;37.20;;
69588;SDS011;56792;50.644;17.984;2023-10-19T20:56:18;58.40;;;34.50;;
69588;SDS011;56792;50.644;17.984;2023-10-19T20:58:50;57.80;;;35.40;;
69588;SDS011;56792;50.644;17.984;2023-10-19T21:01:22;58.40;;;35.60;;
69588;SDS011;56792;50.644;17.984;2023-10-19T21:03:53;58.10;;;37.40;;
69588;SDS011;56792;50.644;17.984;2023-10-19T21:06:24;62.60;;;37.90;;
69588;SDS011;56792;50.644;17.984;2023-10-19T21:09:00;65.70;;;40.60;;
69588;SDS011;56792;50.644;17.984;2023-10-19T21:11:31;62.50;;;40.50;;
69588;SDS011;56792;50.644;17.984;2023-10-19T21:14:02;62.40;;;39.10;;
69588;SDS011;56792;50.644;17.984;2023-10-19T21:16:33;79.40;;;52.80;;
69588;SDS011;56792;50.644;17.984;2023-10-19T21:19:04;92.30;;;66.00;;
69588;SDS011;56792;50.644;17.984;2023-10-19T21:21:38;99.90;;;70.90;;
69588;SDS011;56792;50.644;17.984;2023-10-19T21:24:09;105.30;;;77.80;;
69588;SDS011;56792;50.644;17.984;2023-10-19T21:26:40;73.50;;;46.00;;
69588;SDS011;56792;50.644;17.984;2023-10-19T21:29:11;63.70;;;35.90;;
69588;SDS011;56792;50.644;17.984;2023-10-19T21:31:42;55.00;;;34.20;;
69588;SDS011;56792;50.644;17.984;2023-10-19T21:34:13;56.60;;;34.70;;
69588;SDS011;56792;50.644;17.984;2023-10-19T21:36:45;57.70;;;34.70;;
69588;SDS011;56792;50.644;17.984;2023-10-19T21:39:16;58.60;;;34.40;;
69588;SDS011;56792;50.644;17.984;2023-10-19T21:41:47;57.50;;;32.40;;
69588;SDS011;56792;50.644;17.984;2023-10-19T21:44:19;55.80;;;33.40;;
69588;SDS011;56792;50.644;17.984;2023-10-19T21:46:50;56.30;;;33.40;;
69588;SDS011;56792;50.644;17.984;2023-10-19T21:49:21;63.10;;;34.70;;
69588;SDS011;56792;50.644;17.984;2023-10-19T21:51:52;58.40;;;33.10;;
69588;SDS011;56792;50.644;17.984;2023-10-19T21:54:24;53.30;;;32.90;;
69588;SDS011;56792;50.644;17.984;2023-10-19T21:56:55;51.30;;;31.60;;
69588;SDS011;56792;50.644;17.984;2023-10-19T21:59:26;59.20;;;32.80;;
69588;SDS011;56792;50.644;17.984;2023-10-19T22:01:57;55.60;;;31.50;;
69588;SDS011;56792;50.644;17.984;2023-10-19T22:04:28;56.30;;;35.50;;
69588;SDS011;56792;50.644;17.984;2023-10-19T22:06:59;59.00;;;37.00;;
69588;SDS011;56792;50.644;17.984;2023-10-19T22:09:31;67.50;;;41.20;;
69588;SDS011;56792;50.644;17.984;2023-10-19T22:12:02;64.90;;;39.50;;
69588;SDS011;56792;50.644;17.984;2023-10-19T22:14:34;56.80;;;36.30;;
69588;SDS011;56792;50.644;17.984;2023-10-19T22:17:05;63.10;;;36.60;;
69588;SDS011;56792;50.644;17.984;2023-10-19T22:19:36;64.80;;;39.40;;
69588;SDS011;56792;50.644;17.984;2023-10-19T22:22:07;79.40;;;51.90;;
69588;SDS011;56792;50.644;17.984;2023-10-19T22:24:38;74.30;;;50.30;;
69588;SDS011;56792;50.644;17.984;2023-10-19T22:27:12;75.10;;;47.60;;
69588;SDS011;56792;50.644;17.984;2023-10-19T22:29:43;58.90;;;37.50;;
69588;SDS011;56792;50.644;17.984;2023-10-19T22:32:14;53.00;;;32.70;;
69588;SDS011;56792;50.644;17.984;2023-10-19T22:34:45;52.20;;;33.10;;
69588;SDS011;56792;50.644;17.984;2023-10-19T22:37:16;54.40;;;32.10;;
69588;SDS011;56792;50.644;17.984;2023-10-19T22:39:47;52.80;;;30.90;;
69588;SDS011;56792;50.644;17.984;2023-10-19T22:42:18;53.40;;;32.90;;
69588;SDS011;56792;50.644;17.984;2023-10-19T22:44:49;52.70;;;31.90;;
69588;SDS011;56792;50.644;17.984;2023-10-19T22:47:20;47.50;;;29.20;;
69588;SDS011;56792;50.644;17.984;2023-10-19T22:49:51;50.40;;;30.70;;
69588;SDS011;56792;50.644;17.984;2023-10-19T22:52:22;56.30;;;32.90;;
69588;SDS011;56792;50.644;17.984;2023-10-19T22:54:54;54.60;;;33.80;;
69588;SDS011;56792;50.644;17.984;2023-10-19T22:57:25;55.60;;;32.00;;
69588;SDS011;56792;50.644;17.984;2023-10-19T22:59:57;54.10;;;32.50;;
69588;SDS011;56792;50.644;17.984;2023-10-19T23:02:28;55.30;;;31.10;;
69588;SDS011;56792;50.644;17.984;2023-10-19T23:05:00;53.50;;;30.40;;
69588;SDS011;56792;50.644;17.984;2023-10-19T23:07:31;55.60;;;31.40;;
69588;SDS011;56792;50.644;17.984;2023-10-19T23:10:02;54.00;;;31.90;;
69588;SDS011;56792;50.644;17.984;2023-10-19T23:12:35;50.40;;;31.80;;
69588;SDS011;56792;50.644;17.984;2023-10-19T23:15:08;51.80;;;31.10;;
69588;SDS011;56792;50.644;17.984;2023-10-19T23:17:43;51.30;;;30.00;;
69588;SDS011;56792;50.644;17.984;2023-10-19T23:20:17;52.90;;;30.80;;
69588;SDS011;56792;50.644;17.984;2023-10-19T23:22:55;52.80;;;30.50;;
69588;SDS011;56792;50.644;17.984;2023-10-19T23:25:28;50.30;;;30.30;;
69588;SDS011;56792;50.644;17.984;2023-10-19T23:28:00;49.70;;;30.20;;
69588;SDS011;56792;50.644;17.984;2023-10-19T23:30:33;54.50;;;31.70;;
69588;SDS011;56792;50.644;17.984;2023-10-19T23:33:06;54.10;;;30.70;;
69588;SDS011;56792;50.644;17.984;2023-10-19T23:35:38;56.20;;;32.90;;
69588;SDS011;56792;50.644;17.984;2023-10-19T23:38:09;54.10;;;32.40;;
69588;SDS011;56792;50.644;17.984;2023-10-19T23:40:40;54.40;;;32.20;;
69588;SDS011;56792;50.644;17.984;2023-10-19T23:43:11;53.40;;;31.40;;
69588;SDS011;56792;50.644;17.984;2023-10-19T23:45:42;49.30;;;30.20;;
69588;SDS011;56792;50.644;17.984;2023-10-19T23:48:13;52.00;;;30.10;;
69588;SDS011;56792;50.644;17.984;2023-10-19T23:50:48;50.60;;;29.60;;
69588;SDS011;56792;50.644;17.984;2023-10-19T23:53:20;51.10;;;29.00;;
69588;SDS011;56792;50.644;17.984;2023-10-19T23:55:51;46.20;;;29.10;;
69588;SDS011;56792;50.644;17.984;2023-10-19T23:58:22;52.30;;;29.90;;
